^^
Saratoga-Weather Station Historical Data
Daily Summary for January 26, 2021 Units:  Both    English   Metric
Daily Weekly Monthly Yearly Custom
  High: Low: Average:
Temperature: 39.2 °F /  4 °C 36 °F /  2.2 °C 37.6 °F /  3.1 °C
Dew Point: 38.5 °F /  3.6 °C 34.9 °F /  1.6 °C 36.7 °F /  2.6 °C
Humidity: 97% 94% 96%
Wind Speed: 4mph /  6.4km/h - 0.8mph /  1.3km/h
Wind Gust: 8mph /  12.9km/h - -
Wind- - East
Pressure: 29.7 in /  1006.1 hPa 29.6 in /  1003.4 hPa -
Precipitation: 0.44 in /  11.2 mm    
Historical Graphs
 
 
Tabular Data for January 26, 2021
Time Temperature Dew Point Pressure Wind Wind Speed Wind Gust Humidity Rainfall Rate (Hourly) solar
00:00 38.5 °F /  3.6 °C 37.2 °F /  2.9 °C 29.7in /  1005.4hPa East 2mph /  3.2km/h 7mph /  11.3km/h 95% 0in /  0.0mm 0 W/m2
00:05 38.3 °F /  3.5 °C 37 °F /  2.8 °C 29.7in /  1005.4hPa East 2.9mph /  4.7km/h 3mph /  4.8km/h 95% 0in /  0.0mm 0 W/m2
00:10 38.1 °F /  3.4 °C 36.9 °F /  2.7 °C 29.7in /  1005.4hPa East 2mph /  3.2km/h 4mph /  6.4km/h 95% 0in /  0.0mm 0 W/m2
00:15 38.1 °F /  3.4 °C 36.9 °F /  2.7 °C 29.7in /  1005.4hPa ESE 2mph /  3.2km/h 4mph /  6.4km/h 95% 0in /  0.0mm 0 W/m2
00:20 38.1 °F /  3.4 °C 36.9 °F /  2.7 °C 29.7in /  1005.4hPa East 2.9mph /  4.7km/h 4mph /  6.4km/h 95% 0in /  0.0mm 0 W/m2
00:25 37.9 °F /  3.3 °C 36.7 °F /  2.6 °C 29.7in /  1005.4hPa NE 0.9mph /  1.4km/h 3mph /  4.8km/h 95% 0in /  0.0mm 0 W/m2
00:30 37.9 °F /  3.3 °C 36.7 °F /  2.6 °C 29.7in /  1005.4hPa ESE 2.9mph /  4.7km/h 3mph /  4.8km/h 95% 0in /  0.0mm 0 W/m2
00:35 37.9 °F /  3.3 °C 36.7 °F /  2.6 °C 29.7in /  1005.4hPa Calm     95% 0in /  0.0mm 0 W/m2
00:40 37.9 °F /  3.3 °C 36.7 °F /  2.6 °C 29.7in /  1005.4hPa ENE 2mph /  3.2km/h 5mph /  8km/h 95% 0in /  0.0mm 0 W/m2
00:45 37.9 °F /  3.3 °C 36.7 °F /  2.6 °C 29.7in /  1005.4hPa SE 4mph /  6.4km/h 6mph /  9.7km/h 95% 0in /  0.0mm 0 W/m2
00:50 37.9 °F /  3.3 °C 36.7 °F /  2.6 °C 29.7in /  1005.4hPa East 2mph /  3.2km/h 8mph /  12.9km/h 95% 0in /  0.0mm 0 W/m2
00:55 37.8 °F /  3.2 °C 36.5 °F /  2.5 °C 29.7in /  1005.4hPa East 4mph /  6.4km/h 4mph /  6.4km/h 95% 0in /  0.0mm 0 W/m2
01:00 37.8 °F /  3.2 °C 36.5 °F /  2.5 °C 29.7in /  1005.4hPa East 2mph /  3.2km/h 8mph /  12.9km/h 95% 0in /  0.0mm 0 W/m2
01:05 37.8 °F /  3.2 °C 36.5 °F /  2.5 °C 29.7in /  1005.4hPa East 2mph /  3.2km/h 4mph /  6.4km/h 95% 0in /  0.0mm 0 W/m2
01:10 37.6 °F /  3.1 °C 36 °F /  2.2 °C 29.7in /  1005.4hPa ESE 2mph /  3.2km/h 5mph /  8km/h 94% 0in /  0.0mm 0 W/m2
01:15 37.6 °F /  3.1 °C 36 °F /  2.2 °C 29.7in /  1005.4hPa East 2mph /  3.2km/h 6mph /  9.7km/h 94% 0in /  0.0mm 0 W/m2
01:20 37.4 °F /  3 °C 36.1 °F /  2.3 °C 29.7in /  1005.4hPa East 2.9mph /  4.7km/h 4mph /  6.4km/h 95% 0in /  0.0mm 0 W/m2
01:25 37.4 °F /  3 °C 36.1 °F /  2.3 °C 29.7in /  1005.4hPa ESE 0.9mph /  1.4km/h 4mph /  6.4km/h 95% 0.01in /  0.2mm 0 W/m2
01:30 37.2 °F /  2.9 °C 36 °F /  2.2 °C 29.7in /  1005.4hPa East 0.9mph /  1.4km/h 2mph /  3.2km/h 95% 0.01in /  0.2mm 0 W/m2
01:35 37.2 °F /  2.9 °C 36 °F /  2.2 °C 29.7in /  1005.4hPa Calm   2mph /  3.2km/h 95% 0.01in /  0.2mm 0 W/m2
01:40 37.2 °F /  2.9 °C 36 °F /  2.2 °C 29.7in /  1005.4hPa East 0.9mph /  1.4km/h 3mph /  4.8km/h 95% 0.01in /  0.2mm 0 W/m2
01:45 37.2 °F /  2.9 °C 36 °F /  2.2 °C 29.7in /  1005.4hPa NE 0.9mph /  1.4km/h 4mph /  6.4km/h 95% 0.01in /  0.2mm 0 W/m2
01:50 37 °F /  2.8 °C 35.8 °F /  2.1 °C 29.7in /  1005.4hPa East 0.9mph /  1.4km/h 2mph /  3.2km/h 95% 0.02in /  0.5mm 0 W/m2
01:55 37 °F /  2.8 °C 35.8 °F /  2.1 °C 29.7in /  1005.4hPa ENE 2mph /  3.2km/h 2mph /  3.2km/h 95% 0.02in /  0.5mm 0 W/m2
02:00 37 °F /  2.8 °C 35.8 °F /  2.1 °C 29.7in /  1005.4hPa ESE 2mph /  3.2km/h 2mph /  3.2km/h 95% 0.02in /  0.5mm 0 W/m2
02:05 37 °F /  2.8 °C 35.8 °F /  2.1 °C 29.7in /  1005.4hPa ENE 0.9mph /  1.4km/h 1mph /  1.6km/h 95% 0.02in /  0.5mm 0 W/m2
02:10 37 °F /  2.8 °C 35.8 °F /  2.1 °C 29.7in /  1005.4hPa ENE 0.9mph /  1.4km/h 1mph /  1.6km/h 95% 0.02in /  0.5mm 0 W/m2
02:15 36.9 °F /  2.7 °C 35.6 °F /  2 °C 29.7in /  1005.4hPa SE 0.9mph /  1.4km/h 4mph /  6.4km/h 95% 0.02in /  0.5mm 0 W/m2
02:20 36.9 °F /  2.7 °C 35.6 °F /  2 °C 29.7in /  1005.4hPa East 0.9mph /  1.4km/h 3mph /  4.8km/h 95% 0.02in /  0.5mm 0 W/m2
02:25 36.9 °F /  2.7 °C 35.6 °F /  2 °C 29.7in /  1005.4hPa ESE 2.9mph /  4.7km/h 3mph /  4.8km/h 95% 0.01in /  0.2mm 0 W/m2
02:30 36.9 °F /  2.7 °C 35.6 °F /  2 °C 29.7in /  1005.4hPa East 2.9mph /  4.7km/h 3mph /  4.8km/h 95% 0.01in /  0.2mm 0 W/m2
02:35 36.9 °F /  2.7 °C 35.6 °F /  2 °C 29.7in /  1005.4hPa ENE 0.9mph /  1.4km/h 7mph /  11.3km/h 95% 0.01in /  0.2mm 0 W/m2
02:40 36.9 °F /  2.7 °C 35.6 °F /  2 °C 29.7in /  1005.4hPa East 2mph /  3.2km/h 3mph /  4.8km/h 95% 0.02in /  0.5mm 0 W/m2
02:45 36.9 °F /  2.7 °C 35.6 °F /  2 °C 29.7in /  1005.4hPa ESE 2mph /  3.2km/h 6mph /  9.7km/h 95% 0.02in /  0.5mm 0 W/m2
02:50 36.9 °F /  2.7 °C 35.6 °F /  2 °C 29.7in /  1005.8hPa Calm   5mph /  8km/h 95% 0.01in /  0.2mm 0 W/m2
02:55 36.7 °F /  2.6 °C 35.4 °F /  1.9 °C 29.7in /  1005.8hPa East 0.9mph /  1.4km/h 6mph /  9.7km/h 95% 0.01in /  0.2mm 0 W/m2
03:00 36.7 °F /  2.6 °C 35.4 °F /  1.9 °C 29.7in /  1005.8hPa ENE 0.9mph /  1.4km/h 5mph /  8km/h 95% 0.01in /  0.2mm 0 W/m2
03:05 36.7 °F /  2.6 °C 35.4 °F /  1.9 °C 29.7in /  1005.8hPa ESE 0.9mph /  1.4km/h 2mph /  3.2km/h 95% 0.01in /  0.2mm 0 W/m2
03:10 36.7 °F /  2.6 °C 35.4 °F /  1.9 °C 29.7in /  1005.8hPa ESE 0.9mph /  1.4km/h 3mph /  4.8km/h 95% 0.01in /  0.2mm 0 W/m2
03:15 36.7 °F /  2.6 °C 35.4 °F /  1.9 °C 29.7in /  1005.8hPa ESE 4mph /  6.4km/h 4mph /  6.4km/h 95% 0.01in /  0.2mm 0 W/m2
03:20 36.7 °F /  2.6 °C 35.4 °F /  1.9 °C 29.7in /  1005.8hPa ESE 2.9mph /  4.7km/h 4mph /  6.4km/h 95% 0.01in /  0.2mm 0 W/m2
03:25 36.7 °F /  2.6 °C 35.6 °F /  2 °C 29.7in /  1005.8hPa NE 2mph /  3.2km/h 3mph /  4.8km/h 96% 0.01in /  0.2mm 0 W/m2
03:30 36.7 °F /  2.6 °C 35.6 °F /  2 °C 29.7in /  1005.4hPa ESE 0.9mph /  1.4km/h 3mph /  4.8km/h 96% 0.01in /  0.2mm 0 W/m2
03:35 36.5 °F /  2.5 °C 35.4 °F /  1.9 °C 29.7in /  1005.8hPa ESE 2mph /  3.2km/h 4mph /  6.4km/h 96% 0.02in /  0.5mm 0 W/m2
03:40 36.5 °F /  2.5 °C 35.4 °F /  1.9 °C 29.7in /  1005.4hPa Calm   2mph /  3.2km/h 96% 0.01in /  0.2mm 0 W/m2
03:45 36.5 °F /  2.5 °C 35.4 °F /  1.9 °C 29.7in /  1005.4hPa East 0.9mph /  1.4km/h 3mph /  4.8km/h 96% 0.01in /  0.2mm 0 W/m2
03:50 36.5 °F /  2.5 °C 35.4 °F /  1.9 °C 29.7in /  1005.4hPa Calm   1mph /  1.6km/h 96% 0.02in /  0.5mm 0 W/m2
03:55 36.5 °F /  2.5 °C 35.4 °F /  1.9 °C 29.7in /  1005.4hPa East 2mph /  3.2km/h 3mph /  4.8km/h 96% 0.02in /  0.5mm 0 W/m2
04:00 36.3 °F /  2.4 °C 35.1 °F /  1.7 °C 29.7in /  1005.4hPa ENE 2mph /  3.2km/h 2mph /  3.2km/h 95% 0.02in /  0.5mm 0 W/m2
04:05 36.3 °F /  2.4 °C 35.1 °F /  1.7 °C 29.7in /  1005.4hPa Calm   4mph /  6.4km/h 95% 0.02in /  0.5mm 0 W/m2
04:10 36.3 °F /  2.4 °C 35.1 °F /  1.7 °C 29.7in /  1005.4hPa ESE 0.9mph /  1.4km/h 4mph /  6.4km/h 95% 0.02in /  0.5mm 0 W/m2
04:15 36.3 °F /  2.4 °C 35.1 °F /  1.7 °C 29.7in /  1005.4hPa Calm   2mph /  3.2km/h 95% 0.02in /  0.5mm 0 W/m2
04:20 36.1 °F /  2.3 °C 35.1 °F /  1.7 °C 29.7in /  1005.4hPa ESE 2mph /  3.2km/h 3mph /  4.8km/h 96% 0.02in /  0.5mm 0 W/m2
04:25 36.1 °F /  2.3 °C 35.1 °F /  1.7 °C 29.7in /  1005.4hPa East 0.9mph /  1.4km/h 2mph /  3.2km/h 96% 0.02in /  0.5mm 0 W/m2
04:30 36.1 °F /  2.3 °C 35.1 °F /  1.7 °C 29.7in /  1005.4hPa East 0.9mph /  1.4km/h 2mph /  3.2km/h 96% 0.02in /  0.5mm 0 W/m2
04:35 36.1 °F /  2.3 °C 35.1 °F /  1.7 °C 29.7in /  1005.4hPa East 0.9mph /  1.4km/h 1mph /  1.6km/h 96% 0.02in /  0.5mm 0 W/m2
04:40 36.1 °F /  2.3 °C 35.1 °F /  1.7 °C 29.7in /  1005.4hPa ENE 0.9mph /  1.4km/h 2mph /  3.2km/h 96% 0.02in /  0.5mm 0 W/m2
04:45 36.1 °F /  2.3 °C 35.1 °F /  1.7 °C 29.7in /  1005.4hPa East 2mph /  3.2km/h 3mph /  4.8km/h 96% 0.02in /  0.5mm 0 W/m2
04:50 36.1 °F /  2.3 °C 35.1 °F /  1.7 °C 29.7in /  1005.4hPa Calm   4mph /  6.4km/h 96% 0.02in /  0.5mm 0 W/m2
04:55 36.1 °F /  2.3 °C 35.1 °F /  1.7 °C 29.7in /  1005.4hPa East 0.9mph /  1.4km/h 2mph /  3.2km/h 96% 0.02in /  0.5mm 0 W/m2
05:00 36.1 °F /  2.3 °C 35.1 °F /  1.7 °C 29.7in /  1005.4hPa ENE 2mph /  3.2km/h 3mph /  4.8km/h 96% 0.02in /  0.5mm 0 W/m2
05:05 36.1 °F /  2.3 °C 35.1 °F /  1.7 °C 29.7in /  1005.4hPa ENE 0.9mph /  1.4km/h 2mph /  3.2km/h 96% 0.02in /  0.5mm 0 W/m2
05:10 36 °F /  2.2 °C 34.9 °F /  1.6 °C 29.7in /  1005.4hPa Calm   1mph /  1.6km/h 96% 0.02in /  0.5mm 0 W/m2
05:15 36 °F /  2.2 °C 34.9 °F /  1.6 °C 29.7in /  1005.4hPa ENE 0.9mph /  1.4km/h 2mph /  3.2km/h 96% 0.02in /  0.5mm 0 W/m2
05:20 36 °F /  2.2 °C 34.9 °F /  1.6 °C 29.7in /  1005.4hPa East 0.9mph /  1.4km/h 3mph /  4.8km/h 96% 0.02in /  0.5mm 0 W/m2
05:25 36 °F /  2.2 °C 34.9 °F /  1.6 °C 29.7in /  1005.4hPa ESE 2mph /  3.2km/h 3mph /  4.8km/h 96% 0.02in /  0.5mm 0 W/m2
05:30 36 °F /  2.2 °C 34.9 °F /  1.6 °C 29.7in /  1005.4hPa ENE 0.9mph /  1.4km/h 2mph /  3.2km/h 96% 0.02in /  0.5mm 0 W/m2
05:36 36 °F /  2.2 °C 34.9 °F /  1.6 °C 29.7in /  1005.4hPa ENE 0.9mph /  1.4km/h 2mph /  3.2km/h 96% 0.02in /  0.5mm 0 W/m2
05:41 36 °F /  2.2 °C 34.9 °F /  1.6 °C 29.7in /  1005.4hPa East 2mph /  3.2km/h 3mph /  4.8km/h 96% 0.02in /  0.5mm 0 W/m2
05:46 36 °F /  2.2 °C 34.9 °F /  1.6 °C 29.7in /  1005.4hPa East 0.9mph /  1.4km/h 4mph /  6.4km/h 96% 0.02in /  0.5mm 0 W/m2
05:51 36 °F /  2.2 °C 34.9 °F /  1.6 °C 29.7in /  1005.8hPa East 0.9mph /  1.4km/h 2mph /  3.2km/h 96% 0.01in /  0.2mm 0 W/m2
05:56 36 °F /  2.2 °C 34.9 °F /  1.6 °C 29.7in /  1005.8hPa ESE 2mph /  3.2km/h 4mph /  6.4km/h 96% 0.01in /  0.2mm 0 W/m2
06:01 36 °F /  2.2 °C 34.9 °F /  1.6 °C 29.7in /  1005.8hPa Calm   2mph /  3.2km/h 96% 0.01in /  0.2mm 0 W/m2
06:06 36 °F /  2.2 °C 34.9 °F /  1.6 °C 29.7in /  1005.4hPa Calm   1mph /  1.6km/h 96% 0in /  0.0mm 0 W/m2
06:11 36 °F /  2.2 °C 34.9 °F /  1.6 °C 29.7in /  1005.8hPa Calm   1mph /  1.6km/h 96% 0in /  0.0mm 0 W/m2
06:16 36 °F /  2.2 °C 34.9 °F /  1.6 °C 29.7in /  1005.4hPa East 0.9mph /  1.4km/h 3mph /  4.8km/h 96% 0in /  0.0mm 0 W/m2
06:21 36 °F /  2.2 °C 34.9 °F /  1.6 °C 29.7in /  1005.4hPa ENE 0.9mph /  1.4km/h 2mph /  3.2km/h 96% 0in /  0.0mm 0 W/m2
06:26 36 °F /  2.2 °C 34.9 °F /  1.6 °C 29.7in /  1005.4hPa ESE 0.9mph /  1.4km/h 2mph /  3.2km/h 96% 0.01in /  0.2mm 0 W/m2
06:31 36 °F /  2.2 °C 34.9 °F /  1.6 °C 29.7in /  1005.4hPa ENE 2mph /  3.2km/h 3mph /  4.8km/h 96% 0.01in /  0.2mm 0 W/m2
06:36 36 °F /  2.2 °C 34.9 °F /  1.6 °C 29.7in /  1005.4hPa ENE 0.9mph /  1.4km/h 2mph /  3.2km/h 96% 0.01in /  0.2mm 0 W/m2
06:41 36 °F /  2.2 °C 34.9 °F /  1.6 °C 29.7in /  1005.4hPa Calm   2mph /  3.2km/h 96% 0.01in /  0.2mm 0 W/m2
06:46 36 °F /  2.2 °C 34.9 °F /  1.6 °C 29.7in /  1005.4hPa East 0.9mph /  1.4km/h 1mph /  1.6km/h 96% 0.01in /  0.2mm 0 W/m2
06:51 36 °F /  2.2 °C 34.9 °F /  1.6 °C 29.7in /  1005.4hPa Calm   1mph /  1.6km/h 96% 0.01in /  0.2mm 0 W/m2
06:56 36 °F /  2.2 °C 34.9 °F /  1.6 °C 29.7in /  1005.4hPa Calm   1mph /  1.6km/h 96% 0.01in /  0.2mm 0 W/m2
07:01 36 °F /  2.2 °C 34.9 °F /  1.6 °C 29.7in /  1005.4hPa Calm   2mph /  3.2km/h 96% 0.01in /  0.2mm 0 W/m2
07:06 36 °F /  2.2 °C 34.9 °F /  1.6 °C 29.7in /  1005.4hPa Calm     96% 0.01in /  0.2mm 0 W/m2
07:11 36 °F /  2.2 °C 34.9 °F /  1.6 °C 29.7in /  1005.4hPa East 2mph /  3.2km/h 2mph /  3.2km/h 96% 0.01in /  0.2mm 0 W/m2
07:16 36.1 °F /  2.3 °C 35.1 °F /  1.7 °C 29.7in /  1005.4hPa East 2mph /  3.2km/h 2mph /  3.2km/h 96% 0.01in /  0.2mm 0 W/m2
07:21 36.1 °F /  2.3 °C 35.1 °F /  1.7 °C 29.7in /  1005.4hPa Calm   2mph /  3.2km/h 96% 0.01in /  0.2mm 0 W/m2
07:26 36.1 °F /  2.3 °C 35.1 °F /  1.7 °C 29.7in /  1005.4hPa Calm   2mph /  3.2km/h 96% 0in /  0.0mm 0 W/m2
07:31 36.1 °F /  2.3 °C 35.1 °F /  1.7 °C 29.7in /  1005.4hPa Calm     96% 0in /  0.0mm 0 W/m2
07:36 36.1 °F /  2.3 °C 35.1 °F /  1.7 °C 29.7in /  1005.4hPa Calm   2mph /  3.2km/h 96% 0in /  0.0mm 0 W/m2
07:41 36.1 °F /  2.3 °C 35.1 °F /  1.7 °C 29.7in /  1005.4hPa East 2mph /  3.2km/h 2mph /  3.2km/h 96% 0in /  0.0mm 0 W/m2
07:46 36.1 °F /  2.3 °C 35.1 °F /  1.7 °C 29.7in /  1005.4hPa Calm   2mph /  3.2km/h 96% 0.01in /  0.2mm 0 W/m2
07:51 36.1 °F /  2.3 °C 35.1 °F /  1.7 °C 29.7in /  1005.4hPa East 0.9mph /  1.4km/h 2mph /  3.2km/h 96% 0.01in /  0.2mm 0 W/m2
07:56 36.1 °F /  2.3 °C 35.1 °F /  1.7 °C 29.7in /  1005.4hPa Calm   1mph /  1.6km/h 96% 0.01in /  0.2mm 0 W/m2
08:01 36.1 °F /  2.3 °C 35.1 °F /  1.7 °C 29.7in /  1005.4hPa Calm   2mph /  3.2km/h 96% 0.01in /  0.2mm 0 W/m2
08:06 36.1 °F /  2.3 °C 35.1 °F /  1.7 °C 29.7in /  1005.4hPa Calm   2mph /  3.2km/h 96% 0.01in /  0.2mm 0 W/m2
08:11 36.1 °F /  2.3 °C 35.1 °F /  1.7 °C 29.7in /  1005.4hPa Calm   2mph /  3.2km/h 96% 0.01in /  0.2mm 0 W/m2
08:16 36.1 °F /  2.3 °C 35.1 °F /  1.7 °C 29.7in /  1005.4hPa Calm     96% 0.01in /  0.2mm 0 W/m2
08:21 36.1 °F /  2.3 °C 35.1 °F /  1.7 °C 29.7in /  1005.4hPa East 0.9mph /  1.4km/h 3mph /  4.8km/h 96% 0.01in /  0.2mm 0 W/m2
08:26 36.1 °F /  2.3 °C 35.1 °F /  1.7 °C 29.7in /  1005.4hPa ESE 0.9mph /  1.4km/h 2mph /  3.2km/h 96% 0.01in /  0.2mm 0 W/m2
08:31 36.1 °F /  2.3 °C 35.1 °F /  1.7 °C 29.7in /  1005.4hPa Calm   3mph /  4.8km/h 96% 0.01in /  0.2mm 0 W/m2
08:36 36.1 °F /  2.3 °C 35.1 °F /  1.7 °C 29.7in /  1005.4hPa ESE 0.9mph /  1.4km/h 2mph /  3.2km/h 96% 0.01in /  0.2mm 0 W/m2
08:41 36.1 °F /  2.3 °C 35.1 °F /  1.7 °C 29.7in /  1005.4hPa ESE 2mph /  3.2km/h 3mph /  4.8km/h 96% 0.01in /  0.2mm 0 W/m2
08:46 36.1 °F /  2.3 °C 35.4 °F /  1.9 °C 29.7in /  1005.4hPa Calm   2mph /  3.2km/h 97% 0in /  0.0mm 0 W/m2
08:51 36.1 °F /  2.3 °C 35.4 °F /  1.9 °C 29.7in /  1005.8hPa East 2mph /  3.2km/h 2mph /  3.2km/h 97% 0in /  0.0mm 0 W/m2
08:56 36.1 °F /  2.3 °C 35.1 °F /  1.7 °C 29.7in /  1005.8hPa East 2mph /  3.2km/h 3mph /  4.8km/h 96% 0in /  0.0mm 5 W/m2
09:01 36.1 °F /  2.3 °C 35.1 °F /  1.7 °C 29.7in /  1005.8hPa East 0.9mph /  1.4km/h 2mph /  3.2km/h 96% 0in /  0.0mm 7 W/m2
09:06 36.1 °F /  2.3 °C 35.1 °F /  1.7 °C 29.7in /  1005.8hPa Calm   3mph /  4.8km/h 96% 0in /  0.0mm 7 W/m2
09:11 36.3 °F /  2.4 °C 35.2 °F /  1.8 °C 29.7in /  1005.8hPa East 0.9mph /  1.4km/h 2mph /  3.2km/h 96% 0in /  0.0mm 9 W/m2
09:16 36.3 °F /  2.4 °C 35.2 °F /  1.8 °C 29.7in /  1005.8hPa Calm   1mph /  1.6km/h 96% 0in /  0.0mm 11 W/m2
09:21 36.3 °F /  2.4 °C 35.2 °F /  1.8 °C 29.7in /  1005.8hPa East 2mph /  3.2km/h 2mph /  3.2km/h 96% 0in /  0.0mm 18 W/m2
09:26 36.3 °F /  2.4 °C 35.2 °F /  1.8 °C 29.7in /  1005.8hPa ESE 0.9mph /  1.4km/h 2mph /  3.2km/h 96% 0in /  0.0mm 21 W/m2
09:31 36.3 °F /  2.4 °C 35.2 °F /  1.8 °C 29.7in /  1005.8hPa ESE 0.9mph /  1.4km/h 3mph /  4.8km/h 96% 0in /  0.0mm 25 W/m2
09:36 36.3 °F /  2.4 °C 35.2 °F /  1.8 °C 29.7in /  1005.8hPa Calm   4mph /  6.4km/h 96% 0in /  0.0mm 26 W/m2
09:41 36.3 °F /  2.4 °C 35.2 °F /  1.8 °C 29.7in /  1005.8hPa East 0.9mph /  1.4km/h 3mph /  4.8km/h 96% 0in /  0.0mm 33 W/m2
09:46 36.3 °F /  2.4 °C 35.2 °F /  1.8 °C 29.7in /  1005.8hPa ESE 0.9mph /  1.4km/h   96% 0in /  0.0mm 32 W/m2
09:51 36.3 °F /  2.4 °C 35.2 °F /  1.8 °C 29.7in /  1005.8hPa ESE 2.9mph /  4.7km/h 3mph /  4.8km/h 96% 0in /  0.0mm 25 W/m2
09:56 36.5 °F /  2.5 °C 35.4 °F /  1.9 °C 29.7in /  1005.8hPa East 2mph /  3.2km/h 3mph /  4.8km/h 96% 0in /  0.0mm 25 W/m2
10:01 36.7 °F /  2.6 °C 36 °F /  2.2 °C 29.7in /  1005.8hPa East 2mph /  3.2km/h 3mph /  4.8km/h 97% 0in /  0.0mm 25 W/m2
10:06 36.7 °F /  2.6 °C 36 °F /  2.2 °C 29.7in /  1005.8hPa ESE 0.9mph /  1.4km/h 3mph /  4.8km/h 97% 0in /  0.0mm 35 W/m2
10:12 36.9 °F /  2.7 °C 36.1 °F /  2.3 °C 29.7in /  1005.8hPa SE 2mph /  3.2km/h 3mph /  4.8km/h 97% 0in /  0.0mm 33 W/m2
10:22 36.9 °F /  2.7 °C 36.1 °F /  2.3 °C 29.7in /  1005.8hPa ESE 0.9mph /  1.4km/h 2mph /  3.2km/h 97% 0in /  0.0mm 39 W/m2
10:27 36.9 °F /  2.7 °C 36.1 °F /  2.3 °C 29.7in /  1005.8hPa ENE 0.9mph /  1.4km/h 2mph /  3.2km/h 97% 0in /  0.0mm 46 W/m2
10:32 36.9 °F /  2.7 °C 36.1 °F /  2.3 °C 29.7in /  1005.8hPa East 2mph /  3.2km/h 3mph /  4.8km/h 97% 0in /  0.0mm 42 W/m2
10:37 36.9 °F /  2.7 °C 36.1 °F /  2.3 °C 29.7in /  1006.1hPa SSE 0.9mph /  1.4km/h 4mph /  6.4km/h 97% 0in /  0.0mm 32 W/m2
10:42 37 °F /  2.8 °C 36.3 °F /  2.4 °C 29.7in /  1005.8hPa East 2mph /  3.2km/h 3mph /  4.8km/h 97% 0in /  0.0mm 25 W/m2
10:47 37 °F /  2.8 °C 36.3 °F /  2.4 °C 29.7in /  1006.1hPa East 0.9mph /  1.4km/h 3mph /  4.8km/h 97% 0in /  0.0mm 33 W/m2
10:52 37 °F /  2.8 °C 36.3 °F /  2.4 °C 29.7in /  1005.8hPa ESE 2mph /  3.2km/h 3mph /  4.8km/h 97% 0in /  0.0mm 39 W/m2
10:57 37 °F /  2.8 °C 36.3 °F /  2.4 °C 29.7in /  1005.8hPa ESE 0.9mph /  1.4km/h 2mph /  3.2km/h 97% 0in /  0.0mm 28 W/m2
11:02 37.2 °F /  2.9 °C 36.5 °F /  2.5 °C 29.7in /  1005.8hPa ENE 2.9mph /  4.7km/h 3mph /  4.8km/h 97% 0in /  0.0mm 25 W/m2
11:07 37.2 °F /  2.9 °C 36.5 °F /  2.5 °C 29.7in /  1005.8hPa Calm   1mph /  1.6km/h 97% 0in /  0.0mm 26 W/m2
11:12 37.2 °F /  2.9 °C 36.5 °F /  2.5 °C 29.7in /  1005.8hPa Calm   4mph /  6.4km/h 97% 0in /  0.0mm 28 W/m2
11:17 37.2 °F /  2.9 °C 36.5 °F /  2.5 °C 29.7in /  1005.8hPa East 2mph /  3.2km/h 2mph /  3.2km/h 97% 0in /  0.0mm 26 W/m2
11:22 37.2 °F /  2.9 °C 36.5 °F /  2.5 °C 29.7in /  1005.8hPa East 2mph /  3.2km/h 4mph /  6.4km/h 97% 0in /  0.0mm 23 W/m2
11:27 37.2 °F /  2.9 °C 36.5 °F /  2.5 °C 29.7in /  1005.8hPa East 0.9mph /  1.4km/h 3mph /  4.8km/h 97% 0in /  0.0mm 25 W/m2
11:32 37.2 °F /  2.9 °C 36.5 °F /  2.5 °C 29.7in /  1005.8hPa East 0.9mph /  1.4km/h 4mph /  6.4km/h 97% 0in /  0.0mm 23 W/m2
11:37 37.2 °F /  2.9 °C 36.5 °F /  2.5 °C 29.7in /  1005.4hPa ESE 0.9mph /  1.4km/h 3mph /  4.8km/h 97% 0in /  0.0mm 26 W/m2
11:42 37.2 °F /  2.9 °C 36.5 °F /  2.5 °C 29.7in /  1005.4hPa ESE 2.9mph /  4.7km/h 4mph /  6.4km/h 97% 0in /  0.0mm 33 W/m2
11:47 37.4 °F /  3 °C 36.7 °F /  2.6 °C 29.7in /  1005.4hPa Calm   3mph /  4.8km/h 97% 0in /  0.0mm 26 W/m2
11:52 37.6 °F /  3.1 °C 36.9 °F /  2.7 °C 29.7in /  1005.4hPa Calm     97% 0in /  0.0mm 23 W/m2
11:57 37.6 °F /  3.1 °C 36.9 °F /  2.7 °C 29.7in /  1005.1hPa ESE 0.9mph /  1.4km/h 2mph /  3.2km/h 97% 0in /  0.0mm 25 W/m2
12:02 37.6 °F /  3.1 °C 36.9 °F /  2.7 °C 29.7in /  1005.1hPa East 2.9mph /  4.7km/h 3mph /  4.8km/h 97% 0in /  0.0mm 19 W/m2
12:07 37.6 °F /  3.1 °C 36.9 °F /  2.7 °C 29.7in /  1005.1hPa East 0.9mph /  1.4km/h 2mph /  3.2km/h 97% 0in /  0.0mm 18 W/m2
12:12 37.6 °F /  3.1 °C 36.9 °F /  2.7 °C 29.7in /  1005.1hPa ESE 0.9mph /  1.4km/h 3mph /  4.8km/h 97% 0in /  0.0mm 16 W/m2
12:17 37.6 °F /  3.1 °C 36.9 °F /  2.7 °C 29.7in /  1005.1hPa ESE 0.9mph /  1.4km/h 2mph /  3.2km/h 97% 0in /  0.0mm 16 W/m2
12:22 37.6 °F /  3.1 °C 36.9 °F /  2.7 °C 29.7in /  1005.1hPa East 0.9mph /  1.4km/h 3mph /  4.8km/h 97% 0in /  0.0mm 19 W/m2
12:27 37.6 °F /  3.1 °C 36.9 °F /  2.7 °C 29.7in /  1005.1hPa ENE 0.9mph /  1.4km/h 4mph /  6.4km/h 97% 0in /  0.0mm 25 W/m2
12:32 37.6 °F /  3.1 °C 36.9 °F /  2.7 °C 29.7in /  1005.1hPa East 0.9mph /  1.4km/h 3mph /  4.8km/h 97% 0in /  0.0mm 30 W/m2
12:37 37.8 °F /  3.2 °C 37 °F /  2.8 °C 29.7in /  1005.1hPa East 2mph /  3.2km/h 4mph /  6.4km/h 97% 0in /  0.0mm 32 W/m2
12:42 37.8 °F /  3.2 °C 37 °F /  2.8 °C 29.7in /  1005.1hPa SE 2mph /  3.2km/h 2mph /  3.2km/h 97% 0in /  0.0mm 39 W/m2
12:47 37.8 °F /  3.2 °C 37 °F /  2.8 °C 29.7in /  1004.7hPa ESE 0.9mph /  1.4km/h 3mph /  4.8km/h 97% 0in /  0.0mm 37 W/m2
12:52 37.9 °F /  3.3 °C 37.2 °F /  2.9 °C 29.7in /  1005.1hPa ESE 2mph /  3.2km/h 2mph /  3.2km/h 97% 0in /  0.0mm 28 W/m2
12:57 37.9 °F /  3.3 °C 37.2 °F /  2.9 °C 29.7in /  1005.1hPa ESE 0.9mph /  1.4km/h 3mph /  4.8km/h 97% 0in /  0.0mm 26 W/m2
13:02 37.9 °F /  3.3 °C 37.2 °F /  2.9 °C 29.7in /  1004.7hPa East 2mph /  3.2km/h 2mph /  3.2km/h 97% 0in /  0.0mm 33 W/m2
13:07 37.9 °F /  3.3 °C 37.2 °F /  2.9 °C 29.7in /  1004.7hPa ESE 0.9mph /  1.4km/h 3mph /  4.8km/h 97% 0.01in /  0.2mm 32 W/m2
13:12 37.9 °F /  3.3 °C 37.2 °F /  2.9 °C 29.7in /  1004.7hPa East 2mph /  3.2km/h 3mph /  4.8km/h 97% 0.01in /  0.2mm 32 W/m2
13:17 37.9 °F /  3.3 °C 37.2 °F /  2.9 °C 29.7in /  1004.7hPa ESE 2.9mph /  4.7km/h 3mph /  4.8km/h 97% 0.01in /  0.2mm 37 W/m2
13:22 37.9 °F /  3.3 °C 37.2 °F /  2.9 °C 29.7in /  1004.7hPa ESE 2.9mph /  4.7km/h 4mph /  6.4km/h 97% 0.01in /  0.2mm 39 W/m2
13:27 37.9 °F /  3.3 °C 37.2 °F /  2.9 °C 29.7in /  1004.7hPa ENE 2mph /  3.2km/h 3mph /  4.8km/h 97% 0.01in /  0.2mm 37 W/m2
13:32 37.9 °F /  3.3 °C 37.2 °F /  2.9 °C 29.7in /  1004.7hPa East 0.9mph /  1.4km/h 2mph /  3.2km/h 97% 0.01in /  0.2mm 32 W/m2
13:37 37.9 °F /  3.3 °C 37.2 °F /  2.9 °C 29.7in /  1004.7hPa East 2mph /  3.2km/h 4mph /  6.4km/h 97% 0.01in /  0.2mm 30 W/m2
13:42 37.9 °F /  3.3 °C 37.2 °F /  2.9 °C 29.7in /  1004.7hPa ESE 0.9mph /  1.4km/h 4mph /  6.4km/h 97% 0.01in /  0.2mm 21 W/m2
13:47 37.9 °F /  3.3 °C 37.2 °F /  2.9 °C 29.7in /  1004.7hPa NE 0.9mph /  1.4km/h 4mph /  6.4km/h 97% 0.02in /  0.5mm 23 W/m2
13:52 38.1 °F /  3.4 °C 37.4 °F /  3 °C 29.7in /  1004.7hPa ENE 2mph /  3.2km/h 4mph /  6.4km/h 97% 0.02in /  0.5mm 25 W/m2
13:57 38.1 °F /  3.4 °C 37.4 °F /  3 °C 29.7in /  1004.7hPa ENE 0.9mph /  1.4km/h 2mph /  3.2km/h 97% 0.02in /  0.5mm 21 W/m2
14:02 38.1 °F /  3.4 °C 37.4 °F /  3 °C 29.7in /  1004.7hPa East 0.9mph /  1.4km/h 4mph /  6.4km/h 97% 0.02in /  0.5mm 21 W/m2
14:07 38.1 °F /  3.4 °C 37.4 °F /  3 °C 29.7in /  1004.4hPa Calm   2mph /  3.2km/h 97% 0.02in /  0.5mm 18 W/m2
14:12 38.3 °F /  3.5 °C 37.6 °F /  3.1 °C 29.7in /  1004.4hPa ESE 2mph /  3.2km/h 4mph /  6.4km/h 97% 0.02in /  0.5mm 18 W/m2
14:17 38.3 °F /  3.5 °C 37.6 °F /  3.1 °C 29.7in /  1004.4hPa East 0.9mph /  1.4km/h 3mph /  4.8km/h 97% 0.02in /  0.5mm 19 W/m2
14:22 38.3 °F /  3.5 °C 37.6 °F /  3.1 °C 29.7in /  1004.4hPa ENE 0.9mph /  1.4km/h 4mph /  6.4km/h 97% 0.02in /  0.5mm 21 W/m2
14:27 38.3 °F /  3.5 °C 37.6 °F /  3.1 °C 29.7in /  1004.4hPa East 2mph /  3.2km/h 2mph /  3.2km/h 97% 0.02in /  0.5mm 25 W/m2
14:32 38.5 °F /  3.6 °C 37.8 °F /  3.2 °C 29.7in /  1004.4hPa ESE 0.9mph /  1.4km/h 2mph /  3.2km/h 97% 0.03in /  0.8mm 21 W/m2
14:37 38.5 °F /  3.6 °C 37.8 °F /  3.2 °C 29.7in /  1004.4hPa East 2.9mph /  4.7km/h 4mph /  6.4km/h 97% 0.03in /  0.8mm 23 W/m2
14:42 38.5 °F /  3.6 °C 37.8 °F /  3.2 °C 29.7in /  1004.4hPa East 0.9mph /  1.4km/h 3mph /  4.8km/h 97% 0.04in /  1.0mm 21 W/m2
14:47 38.5 °F /  3.6 °C 37.8 °F /  3.2 °C 29.7in /  1004.4hPa East 0.9mph /  1.4km/h 4mph /  6.4km/h 97% 0.03in /  0.8mm 23 W/m2
14:52 38.5 °F /  3.6 °C 37.8 °F /  3.2 °C 29.7in /  1004.4hPa East 2mph /  3.2km/h 2mph /  3.2km/h 97% 0.03in /  0.8mm 16 W/m2
14:57 38.5 °F /  3.6 °C 37.8 °F /  3.2 °C 29.7in /  1004.4hPa East 0.9mph /  1.4km/h 1mph /  1.6km/h 97% 0.04in /  1.0mm 16 W/m2
15:02 38.5 °F /  3.6 °C 37.8 °F /  3.2 °C 29.7in /  1004.4hPa ESE 2mph /  3.2km/h 2mph /  3.2km/h 97% 0.05in /  1.3mm 21 W/m2
15:07 38.5 °F /  3.6 °C 37.8 °F /  3.2 °C 29.7in /  1004.4hPa East 2mph /  3.2km/h 2mph /  3.2km/h 97% 0.04in /  1.0mm 21 W/m2
15:12 38.7 °F /  3.7 °C 37.9 °F /  3.3 °C 29.7in /  1004.1hPa East 2mph /  3.2km/h 3mph /  4.8km/h 97% 0.04in /  1.0mm 23 W/m2
15:18 38.5 °F /  3.6 °C 37.8 °F /  3.2 °C 29.7in /  1004.4hPa East 0.9mph /  1.4km/h 2mph /  3.2km/h 97% 0.05in /  1.3mm 18 W/m2
15:23 38.5 °F /  3.6 °C 37.8 °F /  3.2 °C 29.7in /  1004.1hPa Calm   2mph /  3.2km/h 97% 0.04in /  1.0mm 19 W/m2
15:28 38.7 °F /  3.7 °C 37.9 °F /  3.3 °C 29.7in /  1004.4hPa Calm   1mph /  1.6km/h 97% 0.05in /  1.3mm 16 W/m2
15:33 38.7 °F /  3.7 °C 37.9 °F /  3.3 °C 29.7in /  1004.1hPa Calm   3mph /  4.8km/h 97% 0.04in /  1.0mm 14 W/m2
15:38 38.7 °F /  3.7 °C 37.9 °F /  3.3 °C 29.7in /  1004.1hPa NE 0.9mph /  1.4km/h 2mph /  3.2km/h 97% 0.05in /  1.3mm 14 W/m2
15:43 38.7 °F /  3.7 °C 37.9 °F /  3.3 °C 29.7in /  1004.1hPa Calm   3mph /  4.8km/h 97% 0.04in /  1.0mm 16 W/m2
15:48 38.7 °F /  3.7 °C 37.9 °F /  3.3 °C 29.7in /  1004.1hPa East 0.9mph /  1.4km/h 2mph /  3.2km/h 97% 0.05in /  1.3mm 12 W/m2
15:53 38.7 °F /  3.7 °C 37.9 °F /  3.3 °C 29.7in /  1004.1hPa East 0.9mph /  1.4km/h 3mph /  4.8km/h 97% 0.05in /  1.3mm 12 W/m2
15:58 38.7 °F /  3.7 °C 37.9 °F /  3.3 °C 29.7in /  1004.1hPa ESE 2mph /  3.2km/h 2mph /  3.2km/h 97% 0.05in /  1.3mm 9 W/m2
16:03 38.7 °F /  3.7 °C 37.9 °F /  3.3 °C 29.7in /  1004.1hPa Calm   1mph /  1.6km/h 97% 0.04in /  1.0mm 7 W/m2
16:08 38.8 °F /  3.8 °C 38.1 °F /  3.4 °C 29.7in /  1004.1hPa Calm   2mph /  3.2km/h 97% 0.04in /  1.0mm 5 W/m2
16:13 38.7 °F /  3.7 °C 37.9 °F /  3.3 °C 29.7in /  1004.1hPa Calm   2mph /  3.2km/h 97% 0.04in /  1.0mm 0 W/m2
16:18 38.8 °F /  3.8 °C 38.1 °F /  3.4 °C 29.7in /  1004.1hPa East 2mph /  3.2km/h 2mph /  3.2km/h 97% 0.03in /  0.8mm 0 W/m2
16:23 38.7 °F /  3.7 °C 37.9 °F /  3.3 °C 29.7in /  1004.1hPa Calm   3mph /  4.8km/h 97% 0.04in /  1.0mm 0 W/m2
16:28 38.7 °F /  3.7 °C 37.9 °F /  3.3 °C 29.7in /  1004.1hPa Calm     97% 0.03in /  0.8mm 0 W/m2
16:33 38.7 °F /  3.7 °C 37.9 °F /  3.3 °C 29.7in /  1004.1hPa Calm   1mph /  1.6km/h 97% 0.03in /  0.8mm 0 W/m2
16:38 38.7 °F /  3.7 °C 37.9 °F /  3.3 °C 29.7in /  1004.1hPa ENE 0.9mph /  1.4km/h 2mph /  3.2km/h 97% 0.03in /  0.8mm 0 W/m2
16:43 38.7 °F /  3.7 °C 37.9 °F /  3.3 °C 29.7in /  1004.1hPa Calm   2mph /  3.2km/h 97% 0.03in /  0.8mm 0 W/m2
16:48 38.7 °F /  3.7 °C 37.9 °F /  3.3 °C 29.7in /  1004.1hPa Calm     97% 0.03in /  0.8mm 0 W/m2
16:53 38.7 °F /  3.7 °C 37.9 °F /  3.3 °C 29.7in /  1004.1hPa Calm     97% 0.03in /  0.8mm 0 W/m2
16:58 38.7 °F /  3.7 °C 37.9 °F /  3.3 °C 29.7in /  1004.1hPa ENE 2mph /  3.2km/h 2mph /  3.2km/h 97% 0.03in /  0.8mm 0 W/m2
17:03 38.7 °F /  3.7 °C 37.9 °F /  3.3 °C 29.7in /  1004.1hPa Calm   1mph /  1.6km/h 97% 0.03in /  0.8mm 0 W/m2
17:08 38.7 °F /  3.7 °C 37.9 °F /  3.3 °C 29.7in /  1004.1hPa Calm     97% 0.04in /  1.0mm 0 W/m2
17:13 38.7 °F /  3.7 °C 37.9 °F /  3.3 °C 29.7in /  1004.1hPa Calm     97% 0.04in /  1.0mm 0 W/m2
17:18 38.7 °F /  3.7 °C 37.9 °F /  3.3 °C 29.7in /  1004.1hPa Calm     97% 0.05in /  1.3mm 0 W/m2
17:23 38.7 °F /  3.7 °C 37.9 °F /  3.3 °C 29.7in /  1004.1hPa Calm   2mph /  3.2km/h 97% 0.04in /  1.0mm 0 W/m2
17:28 38.7 °F /  3.7 °C 37.9 °F /  3.3 °C 29.7in /  1004.1hPa Calm     97% 0.05in /  1.3mm 0 W/m2
17:33 38.7 °F /  3.7 °C 37.9 °F /  3.3 °C 29.7in /  1004.1hPa Calm     97% 0.05in /  1.3mm 0 W/m2
17:38 38.7 °F /  3.7 °C 37.9 °F /  3.3 °C 29.7in /  1004.1hPa Calm     97% 0.04in /  1.0mm 0 W/m2
17:43 38.7 °F /  3.7 °C 37.9 °F /  3.3 °C 29.7in /  1004.1hPa Calm     97% 0.04in /  1.0mm 0 W/m2
17:48 38.5 °F /  3.6 °C 37.8 °F /  3.2 °C 29.7in /  1004.1hPa Calm     97% 0.04in /  1.0mm 0 W/m2
17:53 38.7 °F /  3.7 °C 37.9 °F /  3.3 °C 29.7in /  1004.1hPa Calm     97% 0.04in /  1.0mm 0 W/m2
17:58 38.5 °F /  3.6 °C 37.8 °F /  3.2 °C 29.7in /  1004.1hPa Calm     97% 0.04in /  1.0mm 0 W/m2
18:03 38.7 °F /  3.7 °C 37.9 °F /  3.3 °C 29.7in /  1004.1hPa Calm     97% 0.05in /  1.3mm 0 W/m2
18:08 38.7 °F /  3.7 °C 37.9 °F /  3.3 °C 29.7in /  1004.1hPa Calm     97% 0.04in /  1.0mm 0 W/m2
18:13 38.7 °F /  3.7 °C 37.9 °F /  3.3 °C 29.7in /  1004.1hPa Calm   1mph /  1.6km/h 97% 0.05in /  1.3mm 0 W/m2
18:18 38.7 °F /  3.7 °C 37.9 °F /  3.3 °C 29.7in /  1004.1hPa Calm     97% 0.04in /  1.0mm 0 W/m2
18:23 38.7 °F /  3.7 °C 37.9 °F /  3.3 °C 29.7in /  1004.1hPa Calm     97% 0.04in /  1.0mm 0 W/m2
18:28 38.7 °F /  3.7 °C 37.9 °F /  3.3 °C 29.7in /  1004.1hPa Calm     97% 0.03in /  0.8mm 0 W/m2
18:33 38.7 °F /  3.7 °C 37.9 °F /  3.3 °C 29.7in /  1004.1hPa Calm     97% 0.03in /  0.8mm 0 W/m2
18:38 38.7 °F /  3.7 °C 37.9 °F /  3.3 °C 29.7in /  1004.1hPa East 0.9mph /  1.4km/h 1mph /  1.6km/h 97% 0.03in /  0.8mm 0 W/m2
18:43 38.8 °F /  3.8 °C 38.1 °F /  3.4 °C 29.7in /  1004.1hPa Calm     97% 0.03in /  0.8mm 0 W/m2
18:48 38.8 °F /  3.8 °C 38.1 °F /  3.4 °C 29.7in /  1004.1hPa Calm     97% 0.02in /  0.5mm 0 W/m2
18:53 38.8 °F /  3.8 °C 38.1 °F /  3.4 °C 29.7in /  1004.1hPa Calm   2mph /  3.2km/h 97% 0.02in /  0.5mm 0 W/m2
18:58 38.8 °F /  3.8 °C 38.1 °F /  3.4 °C 29.7in /  1004.1hPa Calm     97% 0.02in /  0.5mm 0 W/m2
19:03 38.8 °F /  3.8 °C 38.1 °F /  3.4 °C 29.7in /  1004.1hPa Calm   2mph /  3.2km/h 97% 0.01in /  0.2mm 0 W/m2
19:08 38.8 °F /  3.8 °C 38.1 °F /  3.4 °C 29.7in /  1004.1hPa Calm     97% 0.01in /  0.2mm 0 W/m2
19:13 38.8 °F /  3.8 °C 38.1 °F /  3.4 °C 29.7in /  1004.1hPa Calm   1mph /  1.6km/h 97% 0.01in /  0.2mm 0 W/m2
19:18 38.8 °F /  3.8 °C 38.1 °F /  3.4 °C 29.7in /  1004.1hPa Calm     97% 0.02in /  0.5mm 0 W/m2
19:23 38.8 °F /  3.8 °C 38.1 °F /  3.4 °C 29.7in /  1004.1hPa Calm     97% 0.04in /  1.0mm 0 W/m2
19:28 38.8 °F /  3.8 °C 38.1 °F /  3.4 °C 29.7in /  1004.1hPa Calm     97% 0.04in /  1.0mm 0 W/m2
19:33 38.8 °F /  3.8 °C 38.1 °F /  3.4 °C 29.7in /  1004.1hPa Calm   1mph /  1.6km/h 97% 0.04in /  1.0mm 0 W/m2
19:38 38.8 °F /  3.8 °C 38.1 °F /  3.4 °C 29.7in /  1004.1hPa Calm     97% 0.05in /  1.3mm 0 W/m2
19:43 38.8 °F /  3.8 °C 38.1 °F /  3.4 °C 29.7in /  1004.1hPa Calm   1mph /  1.6km/h 97% 0.05in /  1.3mm 0 W/m2
19:48 38.8 °F /  3.8 °C 38.1 °F /  3.4 °C 29.6in /  1003.7hPa East 0.9mph /  1.4km/h 2mph /  3.2km/h 97% 0.05in /  1.3mm 0 W/m2
19:53 38.8 °F /  3.8 °C 38.1 °F /  3.4 °C 29.7in /  1004.1hPa Calm     97% 0.05in /  1.3mm 0 W/m2
19:58 38.8 °F /  3.8 °C 38.1 °F /  3.4 °C 29.7in /  1004.1hPa Calm   2mph /  3.2km/h 97% 0.05in /  1.3mm 0 W/m2
20:03 38.8 °F /  3.8 °C 38.1 °F /  3.4 °C 29.7in /  1004.1hPa Calm     97% 0.05in /  1.3mm 0 W/m2
20:09 38.8 °F /  3.8 °C 38.1 °F /  3.4 °C 29.6in /  1003.7hPa Calm     97% 0.05in /  1.3mm 0 W/m2
20:14 38.8 °F /  3.8 °C 38.1 °F /  3.4 °C 29.6in /  1003.7hPa Calm     97% 0.04in /  1.0mm 0 W/m2
20:19 38.8 °F /  3.8 °C 38.1 °F /  3.4 °C 29.7in /  1004.1hPa Calm   1mph /  1.6km/h 97% 0.03in /  0.8mm 0 W/m2
20:24 38.8 °F /  3.8 °C 38.1 °F /  3.4 °C 29.6in /  1003.7hPa Calm     97% 0.02in /  0.5mm 0 W/m2
20:29 38.8 °F /  3.8 °C 38.1 °F /  3.4 °C 29.7in /  1004.1hPa Calm     97% 0.02in /  0.5mm 0 W/m2
20:34 38.8 °F /  3.8 °C 38.1 °F /  3.4 °C 29.6in /  1003.7hPa Calm     97% 0.02in /  0.5mm 0 W/m2
20:39 38.8 °F /  3.8 °C 38.1 °F /  3.4 °C 29.7in /  1004.1hPa Calm     97% 0.03in /  0.8mm 0 W/m2
20:44 38.8 °F /  3.8 °C 38.1 °F /  3.4 °C 29.7in /  1004.1hPa Calm     97% 0.05in /  1.3mm 0 W/m2
20:49 38.8 °F /  3.8 °C 38.1 °F /  3.4 °C 29.7in /  1004.1hPa Calm     97% 0.06in /  1.5mm 0 W/m2
20:54 38.8 °F /  3.8 °C 38.1 °F /  3.4 °C 29.6in /  1003.7hPa Calm     97% 0.06in /  1.5mm 0 W/m2
20:59 38.8 °F /  3.8 °C 38.1 °F /  3.4 °C 29.7in /  1004.1hPa Calm     97% 0.06in /  1.5mm 0 W/m2
21:04 38.8 °F /  3.8 °C 38.1 °F /  3.4 °C 29.7in /  1004.1hPa Calm     97% 0.06in /  1.5mm 0 W/m2
21:09 38.8 °F /  3.8 °C 38.1 °F /  3.4 °C 29.6in /  1003.7hPa Calm     97% 0.09in /  2.3mm 0 W/m2
21:14 38.8 °F /  3.8 °C 38.1 °F /  3.4 °C 29.6in /  1003.7hPa Calm     97% 0.1in /  2.5mm 0 W/m2
21:19 38.8 °F /  3.8 °C 38.1 °F /  3.4 °C 29.6in /  1003.7hPa Calm     97% 0.1in /  2.5mm 0 W/m2
21:24 39 °F /  3.9 °C 38.3 °F /  3.5 °C 29.6in /  1003.7hPa Calm     97% 0.09in /  2.3mm 0 W/m2
21:29 39 °F /  3.9 °C 38.3 °F /  3.5 °C 29.6in /  1003.7hPa Calm     97% 0.09in /  2.3mm 0 W/m2
21:34 39 °F /  3.9 °C 38.3 °F /  3.5 °C 29.6in /  1003.7hPa Calm     97% 0.09in /  2.3mm 0 W/m2
21:39 38.8 °F /  3.8 °C 38.1 °F /  3.4 °C 29.7in /  1004.1hPa Calm     97% 0.09in /  2.3mm 0 W/m2
21:44 38.8 °F /  3.8 °C 38.1 °F /  3.4 °C 29.6in /  1003.7hPa Calm     97% 0.07in /  1.8mm 0 W/m2
21:49 38.8 °F /  3.8 °C 38.1 °F /  3.4 °C 29.6in /  1003.7hPa Calm     97% 0.06in /  1.5mm 0 W/m2
21:54 38.8 °F /  3.8 °C 38.1 °F /  3.4 °C 29.6in /  1003.7hPa Calm     97% 0.06in /  1.5mm 0 W/m2
21:59 38.8 °F /  3.8 °C 38.1 °F /  3.4 °C 29.6in /  1003.7hPa Calm     97% 0.06in /  1.5mm 0 W/m2
22:04 38.8 °F /  3.8 °C 38.1 °F /  3.4 °C 29.6in /  1003.7hPa Calm     97% 0.06in /  1.5mm 0 W/m2
22:09 39 °F /  3.9 °C 38.3 °F /  3.5 °C 29.6in /  1003.7hPa Calm     97% 0.03in /  0.8mm 0 W/m2
22:14 39 °F /  3.9 °C 38.3 °F /  3.5 °C 29.6in /  1003.7hPa Calm     97% 0.02in /  0.5mm 0 W/m2
22:19 39 °F /  3.9 °C 38.3 °F /  3.5 °C 29.6in /  1003.7hPa Calm     97% 0.01in /  0.2mm 0 W/m2
22:24 39 °F /  3.9 °C 38.3 °F /  3.5 °C 29.6in /  1003.7hPa Calm     97% 0.01in /  0.2mm 0 W/m2
22:29 39 °F /  3.9 °C 38.3 °F /  3.5 °C 29.6in /  1003.7hPa Calm     97% 0.01in /  0.2mm 0 W/m2
22:34 39 °F /  3.9 °C 38.3 °F /  3.5 °C 29.6in /  1003.7hPa Calm     97% 0in /  0.0mm 0 W/m2
22:39 39 °F /  3.9 °C 38.3 °F /  3.5 °C 29.6in /  1003.4hPa Calm     97% 0in /  0.0mm 0 W/m2
22:44 39 °F /  3.9 °C 38.3 °F /  3.5 °C 29.6in /  1003.7hPa Calm     97% 0in /  0.0mm 0 W/m2
22:49 39 °F /  3.9 °C 38.3 °F /  3.5 °C 29.6in /  1003.7hPa Calm     97% 0in /  0.0mm 0 W/m2
22:54 39 °F /  3.9 °C 38.3 °F /  3.5 °C 29.6in /  1003.7hPa Calm     97% 0in /  0.0mm 0 W/m2
22:59 39 °F /  3.9 °C 38.3 °F /  3.5 °C 29.6in /  1003.7hPa Calm     97% 0in /  0.0mm 0 W/m2
23:04 39.2 °F /  4 °C 38.5 °F /  3.6 °C 29.6in /  1003.7hPa Calm     97% 0in /  0.0mm 0 W/m2
23:09 39 °F /  3.9 °C 38.3 °F /  3.5 °C 29.6in /  1003.7hPa Calm     97% 0in /  0.0mm 0 W/m2
23:14 39.2 °F /  4 °C 38.5 °F /  3.6 °C 29.6in /  1003.4hPa Calm     97% 0in /  0.0mm 0 W/m2
23:19 39 °F /  3.9 °C 38.3 °F /  3.5 °C 29.6in /  1003.4hPa Calm     97% 0in /  0.0mm 0 W/m2
23:24 39.2 °F /  4 °C 38.5 °F /  3.6 °C 29.6in /  1003.4hPa Calm     97% 0in /  0.0mm 0 W/m2
23:29 39.2 °F /  4 °C 38.5 °F /  3.6 °C 29.6in /  1003.4hPa Calm     97% 0in /  0.0mm 0 W/m2
23:34 39 °F /  3.9 °C 38.3 °F /  3.5 °C 29.6in /  1003.4hPa Calm     97% 0in /  0.0mm 0 W/m2
23:39 39 °F /  3.9 °C 38.3 °F /  3.5 °C 29.6in /  1003.4hPa Calm     97% 0in /  0.0mm 0 W/m2
23:44 39.2 °F /  4 °C 38.5 °F /  3.6 °C 29.6in /  1003.4hPa Calm     97% 0in /  0.0mm 0 W/m2
23:49 39.2 °F /  4 °C 38.5 °F /  3.6 °C 29.6in /  1003.4hPa Calm     97% 0.01in /  0.2mm 0 W/m2
23:54 39.2 °F /  4 °C 38.5 °F /  3.6 °C 29.6in /  1003.4hPa Calm     97% 0.01in /  0.2mm 0 W/m2
23:59 39.2 °F /  4 °C 38.5 °F /  3.6 °C 29.6in /  1003.4hPa Calm     97% 0.01in /  0.2mm 0 W/m2
Juneau County Weather
Compliments of Weather Underground - 4 mb